Time;durP1;ratioP1;P1;durP2;ratioP2;P2;SDS_P1;SDS_P2;PMS_P1;PMS_P2;Temp;Humidity;BMP_temperature;BMP_pressure;BME280_temperature;BME280_humidity;BME280_pressure;Samples;Min_cycle;Max_cycle;Signal;HPM_P1;HPM_P2
2023/12/30 00:02:06;;;;;;;4.90;1.33;;;18.70;52.40;;;;;;5067689;28;20117;-29
2023/12/30 00:04:33;;;;;;;2.38;1.30;;;;;;;;;;5072862;28;20382;-32
2023/12/30 00:07:00;;;;;;;2.63;1.10;;;;;;;;;;5073371;28;20060;-25
2023/12/30 00:09:27;;;;;;;1.63;1.00;;;17.80;57.70;;;;;;5073236;28;20598;-26
2023/12/30 00:11:54;;;;;;;1.67;1.10;;;18.60;52.30;;;;;;5072925;28;20045;-26
2023/12/30 00:14:21;;;;;;;2.40;1.17;;;18.90;76.60;;;;;;5073034;28;20052;-25
2023/12/30 00:16:48;;;;;;;1.77;1.08;;;;;;;;;;5069343;28;20134;-30
2023/12/30 00:19:17;;;;;;;3.53;1.20;;;18.60;52.30;;;;;;5060511;28;20045;-24
2023/12/30 00:21:43;;;;;;;2.33;1.00;;;18.70;60.50;;;;;;5072573;28;20090;-25
2023/12/30 00:24:11;;;;;;;3.30;1.10;;;;;;;;;;5071657;28;20051;-30
2023/12/30 00:26:37;;;;;;;2.40;1.20;;;18.60;76.40;;;;;;5072766;28;20044;-29
2023/12/30 00:29:05;;;;;;;1.63;0.90;;;;;;;;;;5072970;28;20051;-30
2023/12/30 00:31:32;;;;;;;2.25;1.10;;;;;;;;;;5072919;28;20114;-31
2023/12/30 00:34:00;;;;;;;2.30;1.13;;;17.90;72.30;;;;;;5062286;28;20079;-30
2023/12/30 00:36:28;;;;;;;1.40;1.00;;;;;;;;;;5070369;28;20048;-29
2023/12/30 00:38:55;;;;;;;3.22;1.35;;;18.50;52.90;;;;;;5072583;28;20614;-30
2023/12/30 00:41:22;;;;;;;1.73;1.10;;;;;;;;;;5073001;28;20048;-31
2023/12/30 00:43:49;;;;;;;2.03;0.90;;;18.60;55.40;;;;;;5072566;28;20106;-29
2023/12/30 00:46:19;;;;;;;2.65;1.20;;;;;;;;;;5072660;28;20106;-33
2023/12/30 00:48:45;;;;;;;2.42;1.20;;;18.90;64.70;;;;;;5068053;28;20497;-32
2023/12/30 00:51:13;;;;;;;1.88;0.90;;;;;;;;;;5052433;28;20468;-27
2023/12/30 00:53:41;;;;;;;2.03;1.02;;;;;;;;;;5052122;28;20111;-26
2023/12/30 00:56:08;;;;;;;2.38;1.17;;;18.40;76.40;;;;;;5052288;28;20079;-25
2023/12/30 00:58:35;;;;;;;2.78;1.02;;;;;;;;;;5068793;28;20048;-25
2023/12/30 01:01:02;;;;;;;2.92;1.25;;;19.00;67.90;;;;;;5072247;28;20060;-25
2023/12/30 01:03:29;;;;;;;2.95;1.00;;;;;;;;;;5071953;28;20178;-25
2023/12/30 01:05:56;;;;;;;2.00;1.17;;;;;;;;;;5067140;28;20044;-28
2023/12/30 01:08:24;;;;;;;1.98;1.02;;;;;;;;;;5072027;28;20102;-30
2023/12/30 01:10:52;;;;;;;2.42;1.05;;;;;;;;;;5071956;28;20490;-32
2023/12/30 01:13:19;;;;;;;2.13;1.00;;;19.00;61.90;;;;;;5071913;28;20052;-32
2023/12/30 01:15:46;;;;;;;2.38;1.10;;;;;;;;;;5072127;28;20055;-30
2023/12/30 01:18:13;;;;;;;1.65;0.90;;;;;;;;;;5072267;28;20052;-31
2023/12/30 01:20:41;;;;;;;2.70;1.10;;;;;;;;;;5071286;28;20405;-30
2023/12/30 01:23:08;;;;;;;2.13;0.90;;;;;;;;;;5071297;28;20067;-28
2023/12/30 01:25:37;;;;;;;2.05;1.25;;;;;;;;;;5071584;28;20094;-30
2023/12/30 01:28:07;;;;;;;1.45;0.90;;;;;;;;;;5071821;28;20133;-30
2023/12/30 01:30:36;;;;;;;3.17;1.10;;;;;;;;;;5071284;28;20114;-33
2023/12/30 01:33:03;;;;;;;1.65;0.80;;;;;;;;;;5071611;28;20055;-31
2023/12/30 01:35:31;;;;;;;2.55;1.08;;;;;;;;;;5071636;28;20048;-29
2023/12/30 01:37:57;;;;;;;2.42;1.10;;;18.20;75.90;;;;;;5069931;28;20045;-32
2023/12/30 01:40:26;;;;;;;3.92;1.10;;;;;;;;;;5061508;28;20114;-32
2023/12/30 01:42:53;;;;;;;1.50;0.85;;;;;;;;;;5071464;28;20083;-28
2023/12/30 01:45:22;;;;;;;1.63;0.80;;;;;;;;;;5071361;28;20049;-31
2023/12/30 01:47:49;;;;;;;4.22;1.40;;;;;;;;;;5071293;28;20628;-33
2023/12/30 01:50:16;;;;;;;3.67;1.13;;;18.40;58.60;;;;;;5070996;28;20562;-32
2023/12/30 01:52:43;;;;;;;1.77;0.90;;;;;;;;;;5071005;28;20078;-33
2023/12/30 01:55:10;;;;;;;1.92;0.98;;;;;;;;;;5069016;28;20489;-33
2023/12/30 01:57:37;;;;;;;1.88;1.08;;;;;;;;;;5071215;28;20060;-30
2023/12/30 02:00:05;;;;;;;1.80;0.98;;;;;;;;;;5070919;28;20102;-32
2023/12/30 02:02:33;;;;;;;1.63;0.90;;;;;;;;;;5069819;28;20513;-32
2023/12/30 02:05:00;;;;;;;2.85;1.33;;;18.00;76.30;;;;;;5070924;28;20082;-31
2023/12/30 02:07:27;;;;;;;1.77;0.90;;;;;;;;;;5071282;28;20045;-31
2023/12/30 02:09:55;;;;;;;1.73;0.90;;;;;;;;;;5068785;28;20053;-31
2023/12/30 02:12:22;;;;;;;2.25;0.90;;;;;;;;;;5070683;28;20102;-29
2023/12/30 02:14:49;;;;;;;1.38;0.90;;;18.60;55.70;;;;;;5070747;28;20052;-32
2023/12/30 02:17:16;;;;;;;1.67;1.00;;;;;;;;;;5071192;28;20056;-35
2023/12/30 02:19:44;;;;;;;2.55;0.95;;;;;;;;;;5071083;28;20398;-32
2023/12/30 02:22:12;;;;;;;1.92;0.80;;;;;;;;;;5070554;28;20045;-31
2023/12/30 02:24:40;;;;;;;3.47;1.02;;;;;;;;;;5070584;28;20040;-32
2023/12/30 02:27:09;;;;;;;2.13;0.90;;;;;;;;;;5066424;28;20469;-30
2023/12/30 02:29:36;;;;;;;1.90;0.82;;;;;;;;;;5070796;28;20073;-25
2023/12/30 02:32:05;;;;;;;3.30;0.98;;;;;;;;;;5071038;28;20048;-28
2023/12/30 02:34:32;;;;;;;1.42;0.85;;;18.00;75.70;;;;;;5070268;28;20574;-24
2023/12/30 02:36:59;;;;;;;2.45;0.90;;;;;;;;;;5069852;28;20566;-28
2023/12/30 02:39:26;;;;;;;2.33;0.90;;;19.20;76.40;;;;;;5070724;28;20489;-24
2023/12/30 02:41:54;;;;;;;2.47;0.85;;;;;;;;;;5070527;28;20095;-28
2023/12/30 02:44:21;;;;;;;2.00;1.17;;;;;;;;;;5053919;28;20091;-32
2023/12/30 02:46:48;;;;;;;2.15;1.02;;;;;;;;;;5050844;28;20106;-30
2023/12/30 02:49:16;;;;;;;2.47;1.05;;;;;;;;;;5053460;28;20041;-33
2023/12/30 02:51:43;;;;;;;3.60;1.15;;;;;;;;;;5070652;28;20090;-32
2023/12/30 02:54:10;;;;;;;2.35;1.10;;;18.60;74.10;;;;;;5070452;28;20048;-32
2023/12/30 02:56:37;;;;;;;2.10;1.08;;;;;;;;;;5070193;28;20105;-33
2023/12/30 02:59:05;;;;;;;1.15;0.90;;;;;;;;;;5067628;28;20118;-31
2023/12/30 03:01:32;;;;;;;2.45;1.10;;;17.40;75.50;;;;;;5050078;28;20628;-31
2023/12/30 03:04:00;;;;;;;1.83;0.90;;;;;;;;;;5050116;28;20049;-30
2023/12/30 03:06:27;;;;;;;1.90;0.93;;;;;;;;;;5050208;28;20045;-34
2023/12/30 03:08:54;;;;;;;3.30;1.27;;;18.20;70.40;;;;;;5050375;28;20052;-31
2023/12/30 03:11:21;;;;;;;2.33;0.93;;;;;;;;;;5057406;28;20048;-33
2023/12/30 03:13:48;;;;;;;2.55;1.02;;;;;;;;;;5070089;28;20048;-34
2023/12/30 03:16:18;;;;;;;1.98;0.93;;;18.30;51.80;;;;;;5066109;28;20051;-31
2023/12/30 03:18:46;;;;;;;1.98;0.95;;;;;;;;;;5070339;28;20052;-31
2023/12/30 03:21:15;;;;;;;3.45;1.20;;;18.30;51.70;;;;;;5072344;28;20134;-33
2023/12/30 03:23:42;;;;;;;1.67;0.85;;;;;;;;;;5073912;28;20048;-34
2023/12/30 03:26:09;;;;;;;1.35;0.85;;;;;;;;;;5074029;28;20048;-25
2023/12/30 03:28:36;;;;;;;2.42;0.90;;;;;;;;;;5072720;28;20052;-30
2023/12/30 03:31:03;;;;;;;3.13;1.00;;;19.10;76.20;;;;;;5073973;28;20098;-24
2023/12/30 03:33:32;;;;;;;1.70;0.70;;;;;;;;;;5072187;28;20075;-30
2023/12/30 03:35:59;;;;;;;2.72;1.15;;;18.30;66.70;;;;;;5073233;28;20382;-31
2023/12/30 03:38:26;;;;;;;3.60;1.15;;;;;;;;;;5073751;28;20044;-30
2023/12/30 03:40:53;;;;;;;2.40;1.10;;;18.10;71.70;;;;;;5073524;28;20048;-33
2023/12/30 03:43:21;;;;;;;2.03;1.00;;;;;;;;;;5073582;28;20071;-29
2023/12/30 03:45:48;;;;;;;1.55;0.90;;;;;;;;;;5073621;28;20048;-33
2023/12/30 03:48:15;;;;;;;1.80;1.00;;;;;;;;;;5069768;28;20098;-29
2023/12/30 03:50:43;;;;;;;1.85;1.00;;;18.20;51.70;;;;;;5053815;28;20049;-30
2023/12/30 03:53:10;;;;;;;3.40;1.35;;;;;;;;;;5053634;28;20075;-31
2023/12/30 03:55:37;;;;;;;2.03;0.90;;;17.30;75.70;;;;;;5053207;28;20044;-34
2023/12/30 03:58:04;;;;;;;3.97;1.83;;;;;;;;;;5053525;28;20398;-24
2023/12/30 04:00:31;;;;;;;4.60;1.40;;;18.40;66.10;;;;;;5053222;28;20049;-25
2023/12/30 04:02:58;;;;;;;2.58;1.10;;;18.10;75.60;;;;;;5053494;28;20044;-24
2023/12/30 04:05:25;;;;;;;3.53;1.10;;;;;;;;;;5054261;28;20091;-28
2023/12/30 04:07:54;;;;;;;3.40;1.20;;;18.40;52.60;;;;;;5053127;28;20049;-26
2023/12/30 04:10:20;;;;;;;2.08;1.05;;;18.30;76.10;;;;;;5053232;28;20044;-25
2023/12/30 04:12:48;;;;;;;2.33;1.00;;;;;;;;;;5071806;28;20048;-27
2023/12/30 04:15:15;;;;;;;2.33;0.90;;;;;;;;;;5072836;28;20051;-24
2023/12/30 04:17:42;;;;;;;3.47;1.17;;;18.10;68.20;;;;;;5073213;28;20053;-32
2023/12/30 04:20:09;;;;;;;2.38;0.82;;;18.30;75.90;;;;;;5073037;28;20053;-33
2023/12/30 04:22:35;;;;;;;1.88;0.93;;;;;;;;;;5067703;28;20049;-31
2023/12/30 04:25:04;;;;;;;2.45;0.95;;;;;;;;;;5072703;28;20076;-32
2023/12/30 04:27:31;;;;;;;2.30;1.10;;;;;;;;;;5073045;28;20090;-33
2023/12/30 04:29:58;;;;;;;3.50;0.98;;;;;;;;;;5072894;28;20049;-30
2023/12/30 04:32:26;;;;;;;2.42;1.20;;;18.50;75.30;;;;;;5072019;28;20481;-30
2023/12/30 04:34:53;;;;;;;3.13;1.23;;;;;;;;;;5072502;28;20056;-33
2023/12/30 04:37:20;;;;;;;1.73;0.90;;;;;;;;;;5069447;28;20049;-29
2023/12/30 04:39:47;;;;;;;1.50;0.88;;;18.70;75.90;;;;;;5052946;28;20106;-32
2023/12/30 04:42:16;;;;;;;1.67;0.93;;;;;;;;;;5052751;28;20056;-30
2023/12/30 04:44:43;;;;;;;1.65;1.00;;;;;;;;;;5060199;28;20060;-30
2023/12/30 04:47:10;;;;;;;2.78;0.90;;;;;;;;;;5072676;28;20702;-31
2023/12/30 04:49:37;;;;;;;3.03;0.90;;;;;;;;;;5073099;28;20476;-30
2023/12/30 04:52:05;;;;;;;2.63;1.10;;;;;;;;;;5072745;28;20095;-27
2023/12/30 04:54:32;;;;;;;2.15;1.08;;;18.90;75.40;;;;;;5071605;28;20095;-29
2023/12/30 04:56:59;;;;;;;1.75;0.80;;;;;;;;;;5072267;28;20059;-28
2023/12/30 04:59:27;;;;;;;2.85;1.10;;;18.70;51.40;;;;;;5072294;28;20497;-25
2023/12/30 05:01:54;;;;;;;1.90;0.90;;;;;;;;;;5072122;28;20501;-25
2023/12/30 05:04:22;;;;;;;1.45;0.90;;;17.70;74.80;;;;;;5071941;28;20052;-25
2023/12/30 05:06:49;;;;;;;1.77;0.95;;;;;;;;;;5072020;28;20059;-26
2023/12/30 05:09:16;;;;;;;2.42;1.20;;;18.70;75.00;;;;;;5060747;28;20049;-25
2023/12/30 05:11:48;;;;;;;1.92;0.90;;;18.80;51.10;;;;;;5070824;28;20044;-26
2023/12/30 05:14:15;;;;;;;2.70;1.00;;;;;;;;;;5071785;28;20052;-27
2023/12/30 05:16:45;;;;;;;3.55;1.00;;;;;;;;;;5071548;28;20044;-30
2023/12/30 05:19:12;;;;;;;3.00;1.00;;;19.80;75.80;;;;;;5072213;28;20398;-30
2023/12/30 05:21:39;;;;;;;2.72;0.90;;;;;;;;;;5068152;28;20122;-31
2023/12/30 05:24:07;;;;;;;1.98;1.00;;;18.80;75.10;;;;;;5051694;28;20057;-29
2023/12/30 05:26:34;;;;;;;2.53;1.00;;;19.10;52.00;;;;;;5051581;28;20169;-28
2023/12/30 05:29:01;;;;;;;2.35;1.25;;;;;;;;;;5051525;28;20409;-27
2023/12/30 05:31:28;;;;;;;1.65;1.00;;;;;;;;;;5052015;28;20049;-30
2023/12/30 05:33:56;;;;;;;3.60;1.17;;;18.90;51.00;;;;;;5051414;28;20053;-30
2023/12/30 05:36:23;;;;;;;2.20;1.10;;;;;;;;;;5055417;28;20095;-29
2023/12/30 05:38:50;;;;;;;2.25;1.00;;;;;;;;;;5061561;28;20040;-28
2023/12/30 05:41:18;;;;;;;2.90;1.20;;;;;;;;;;5062504;28;20574;-29
2023/12/30 05:43:45;;;;;;;2.55;1.08;;;;;;;;;;5070886;28;20393;-27
2023/12/30 05:46:16;;;;;;;2.97;1.00;;;18.90;50.90;;;;;;5071371;28;20412;-28
2023/12/30 05:48:43;;;;;;;1.95;0.90;;;18.90;55.50;;;;;;5071342;28;20350;-31
2023/12/30 05:51:12;;;;;;;1.83;1.08;;;;;;;;;;5071064;28;20061;-27
2023/12/30 05:53:40;;;;;;;1.85;0.85;;;18.80;62.80;;;;;;5070963;28;20856;-32
2023/12/30 05:56:07;;;;;;;1.67;0.90;;;19.00;72.00;;;;;;5055411;28;20044;-31
2023/12/30 05:58:37;;;;;;;3.15;1.20;;;;;;;;;;5051554;28;20057;-32
2023/12/30 06:01:04;;;;;;;2.65;1.08;;;;;;;;;;5051032;28;20056;-29
2023/12/30 06:03:31;;;;;;;1.70;0.82;;;19.00;74.90;;;;;;5050967;28;20049;-32
2023/12/30 06:05:58;;;;;;;2.88;1.00;;;;;;;;;;5066298;28;20056;-31
2023/12/30 06:08:27;;;;;;;2.65;1.08;;;;;;;;;;5071099;28;20125;-29
2023/12/30 06:10:54;;;;;;;2.35;1.20;;;19.10;74.50;;;;;;5070739;28;20113;-31
2023/12/30 06:13:21;;;;;;;2.60;1.25;;;;;;;;;;5070498;28;20040;-28
2023/12/30 06:15:51;;;;;;;3.03;1.35;;;;;;;;;;5070555;28;20049;-35
2023/12/30 06:18:18;;;;;;;2.03;0.90;;;19.00;74.50;;;;;;5070867;28;20044;-25
2023/12/30 06:20:46;;;;;;;3.35;1.10;;;19.10;50.90;;;;;;5070783;28;20052;-26
2023/12/30 06:23:13;;;;;;;1.38;0.82;;;;;;;;;;5070924;28;20072;-25
2023/12/30 06:25:42;;;;;;;2.42;1.13;;;19.10;50.80;;;;;;5070617;28;20068;-25
2023/12/30 06:28:09;;;;;;;2.97;0.98;;;;;;;;;;5070224;28;20114;-28
2023/12/30 06:30:36;;;;;;;2.20;0.85;;;19.10;52.20;;;;;;5070342;28;20106;-25
2023/12/30 06:33:06;;;;;;;2.03;1.00;;;;;;;;;;5070902;28;20052;-32
2023/12/30 06:35:34;;;;;;;2.25;0.95;;;;;;;;;;5070707;28;20101;-30
2023/12/30 06:38:01;;;;;;;1.15;0.70;;;;;;;;;;5070009;28;20076;-31
2023/12/30 06:40:28;;;;;;;1.95;1.00;;;20.40;75.40;;;;;;5070447;28;20060;-33
2023/12/30 06:42:57;;;;;;;2.67;0.93;;;;;;;;;;5065011;28;20049;-32
2023/12/30 06:45:24;;;;;;;1.63;0.90;;;;;;;;;;5056972;28;20537;-27
2023/12/30 06:47:51;;;;;;;3.05;1.10;;;;;;;;;;5059234;28;20448;-32
2023/12/30 06:50:20;;;;;;;3.13;1.20;;;;;;;;;;5051000;28;20048;-29
2023/12/30 06:52:47;;;;;;;2.65;1.10;;;20.00;73.10;;;;;;5058035;28;20049;-33
2023/12/30 06:55:14;;;;;;;3.00;1.00;;;;;;;;;;5071167;28;20126;-34
2023/12/30 06:57:42;;;;;;;1.90;0.90;;;;;;;;;;5071154;28;20045;-31
2023/12/30 07:00:11;;;;;;;3.60;0.90;;;;;;;;;;5061989;28;20049;-29
2023/12/30 07:02:38;;;;;;;3.10;1.10;;;19.10;74.50;;;;;;5061987;28;20090;-33
2023/12/30 07:05:05;;;;;;;3.28;1.00;;;;;;;;;;5063185;28;20073;-29
2023/12/30 07:07:32;;;;;;;2.75;1.10;;;;;;;;;;5064321;28;20094;-31
2023/12/30 07:09:59;;;;;;;2.22;1.00;;;19.10;57.50;;;;;;5064903;28;20049;-30
2023/12/30 07:12:27;;;;;;;2.13;1.10;;;;;;;;;;5064936;28;20048;-29
2023/12/30 07:14:54;;;;;;;2.88;1.20;;;;;;;;;;5062963;28;20106;-27
2023/12/30 07:17:22;;;;;;;2.40;1.10;;;19.10;50.70;;;;;;5062553;28;20611;-27
2023/12/30 07:19:49;;;;;;;2.42;0.98;;;;;;;;;;5064713;28;20041;-29
2023/12/30 07:22:19;;;;;;;2.38;1.10;;;;;;;;;;5062910;28;20045;-29
2023/12/30 07:24:46;;;;;;;2.78;1.00;;;19.20;73.70;;;;;;5063054;28;20048;-31
2023/12/30 07:27:13;;;;;;;2.15;0.95;;;;;;;;;;5064551;28;20088;-31
2023/12/30 07:29:40;;;;;;;2.15;1.10;;;;;;;;;;5063314;28;20494;-24
2023/12/30 07:32:07;;;;;;;2.00;1.00;;;;;;;;;;5063196;28;20679;-28
2023/12/30 07:34:36;;;;;;;4.13;1.20;;;;;;;;;;5064308;28;20095;-24
2023/12/30 07:37:04;;;;;;;2.00;1.08;;;;;;;;;;5060920;28;20048;-31
2023/12/30 07:39:33;;;;;;;1.90;1.00;;;;;;;;;;5056585;28;20045;-30
2023/12/30 07:42:00;;;;;;;3.88;1.10;;;18.70;50.50;;;;;;5053841;28;20095;-28
2023/12/30 07:44:28;;;;;;;3.38;1.15;;;;;;;;;;5053473;28;20434;-31
2023/12/30 07:46:55;;;;;;;3.40;1.23;;;;;;;;;;5053816;28;20053;-34
2023/12/30 07:49:22;;;;;;;2.20;0.93;;;19.10;69.70;;;;;;5068973;28;20121;-32
2023/12/30 07:51:53;;;;;;;2.28;1.00;;;;;;;;;;5073642;28;20520;-31
2023/12/30 07:54:20;;;;;;;3.00;1.00;;;;;;;;;;5072812;28;20044;-31
2023/12/30 07:56:47;;;;;;;6.38;0.98;;;;;;;;;;5073465;28;20055;-32
2023/12/30 07:59:14;;;;;;;5.43;1.10;;;;;;;;;;5073515;28;20041;-29
2023/12/30 08:01:43;;;;;;;2.13;0.85;;;;;;;;;;5059821;28;20140;-32
2023/12/30 08:04:10;;;;;;;2.35;1.05;;;;;;;;;;5053143;28;20072;-31
2023/12/30 08:06:39;;;;;;;2.20;0.98;;;19.20;67.10;;;;;;5052363;28;20049;-33
2023/12/30 08:09:07;;;;;;;2.85;1.05;;;19.10;51.00;;;;;;5053230;28;20045;-33
2023/12/30 08:11:35;;;;;;;4.55;1.10;;;;;;;;;;5062366;28;20048;-34
2023/12/30 08:14:02;;;;;;;2.35;1.05;;;17.90;74.30;;;;;;5071577;28;20040;-34
2023/12/30 08:16:29;;;;;;;2.20;0.90;;;20.10;52.00;;;;;;5053383;28;20387;-30
2023/12/30 08:18:55;;;;;;;2.08;1.08;;;19.00;69.70;;;;;;5053239;28;20498;-34
2023/12/30 08:21:23;;;;;;;2.35;1.10;;;;;;;;;;5053435;28;20091;-33
2023/12/30 08:23:50;;;;;;;5.85;1.02;;;;;;;;;;5056878;28;20540;-30
2023/12/30 08:26:18;;;;;;;2.90;1.17;;;;;;;;;;5059045;28;20545;-29
2023/12/30 08:28:46;;;;;;;2.55;1.05;;;;;;;;;;5053644;28;20053;-29
2023/12/30 08:31:13;;;;;;;1.88;0.93;;;;;;;;;;5064117;28;20045;-33
2023/12/30 08:33:40;;;;;;;5.03;1.55;;;19.10;74.90;;;;;;5053164;28;20542;-34
2023/12/30 08:36:07;;;;;;;2.90;1.02;;;;;;;;;;5054430;28;20179;-28
2023/12/30 08:38:35;;;;;;;2.83;1.02;;;;;;;;;;5061276;28;20052;-26
2023/12/30 08:41:02;;;;;;;2.28;1.10;;;18.00;60.80;;;;;;5069246;28;20063;-30
2023/12/30 08:43:30;;;;;;;2.38;0.93;;;;;;;;;;5069741;28;20048;-28
2023/12/30 08:45:58;;;;;;;1.98;1.00;;;;;;;;;;5052390;28;20045;-29
2023/12/30 08:48:25;;;;;;;2.72;1.17;;;19.20;74.60;;;;;;5052902;28;20110;-29
2023/12/30 08:50:52;;;;;;;1.80;0.98;;;;;;;;;;5052907;28;20057;-32
2023/12/30 08:53:24;;;;;;;3.17;1.10;;;;;;;;;;5053088;28;20107;-28
2023/12/30 08:55:52;;;;;;;2.17;1.00;;;19.40;74.50;;;;;;5057162;28;20124;-25
2023/12/30 08:58:21;;;;;;;2.60;1.00;;;;;;;;;;5069388;28;20045;-26
2023/12/30 09:00:49;;;;;;;2.20;1.00;;;19.50;50.50;;;;;;5062095;28;20098;-27
2023/12/30 09:03:16;;;;;;;1.73;0.90;;;;;;;;;;5057850;28;20056;-31
2023/12/30 09:05:43;;;;;;;4.38;1.05;;;19.60;73.80;;;;;;5052441;28;20107;-26
2023/12/30 09:08:10;;;;;;;2.90;1.05;;;19.70;54.20;;;;;;5052416;28;20055;-28
2023/12/30 09:10:37;;;;;;;2.22;1.00;;;19.90;74.10;;;;;;5053344;28;20045;-30
2023/12/30 09:13:04;;;;;;;2.13;0.90;;;;;;;;;;5072110;28;20098;-30
2023/12/30 09:15:31;;;;;;;2.50;1.23;;;19.70;73.70;;;;;;5058635;28;20040;-29
2023/12/30 09:17:59;;;;;;;3.42;1.20;;;19.90;49.90;;;;;;5061992;28;20094;-30
2023/12/30 09:20:27;;;;;;;2.38;1.00;;;;;;;;;;5068659;28;20097;-30
2023/12/30 09:22:53;;;;;;;2.90;0.90;;;20.90;74.10;;;;;;5051361;28;20037;-27
2023/12/30 09:25:21;;;;;;;1.25;1.00;;;;;;;;;;5053156;28;20051;-36
2023/12/30 09:27:48;;;;;;;2.58;1.08;;;;;;;;;;5062166;28;20041;-31
2023/12/30 09:30:15;;;;;;;1.98;1.10;;;20.10;49.60;;;;;;5059205;28;20045;-28
2023/12/30 09:32:42;;;;;;;2.95;1.08;;;20.10;73.30;;;;;;5059606;28;20493;-31
2023/12/30 09:35:10;;;;;;;2.22;1.10;;;20.20;49.60;;;;;;5060998;28;20052;-30
2023/12/30 09:37:37;;;;;;;2.20;0.80;;;;;;;;;;5061876;28;20166;-28
2023/12/30 09:40:05;;;;;;;1.20;0.82;;;;;;;;;;5065104;28;20102;-26
2023/12/30 09:42:32;;;;;;;2.15;1.20;;;;;;;;;;5060175;28;20099;-31
2023/12/30 09:45:00;;;;;;;2.78;1.40;;;;;;;;;;5056420;28;20505;-27
2023/12/30 09:47:27;;;;;;;3.72;1.20;;;;;;;;;;5071847;28;20079;-33
2023/12/30 09:49:55;;;;;;;1.95;0.80;;;21.40;73.30;;;;;;5066706;28;20095;-26
2023/12/30 09:52:24;;;;;;;6.45;1.25;;;;;;;;;;5058833;28;20060;-28
2023/12/30 09:54:50;;;;;;;5.20;1.20;;;20.90;73.20;;;;;;5058839;28;20556;-34
2023/12/30 09:57:18;;;;;;;3.72;0.98;;;;;;;;;;5051511;28;20056;-33
2023/12/30 09:59:45;;;;;;;4.82;1.00;;;21.00;50.20;;;;;;5060331;28;20455;-32
2023/12/30 10:02:12;;;;;;;3.10;1.00;;;20.50;66.70;;;;;;5059844;28;20489;-33
2023/12/30 10:04:39;;;;;;;2.50;1.05;;;20.60;72.60;;;;;;5061109;28;20048;-26
2023/12/30 10:07:07;;;;;;;3.22;1.17;;;;;;;;;;5058764;28;20505;-33
2023/12/30 10:09:35;;;;;;;3.13;1.00;;;20.80;49.20;;;;;;5061684;28;20075;-28
2023/12/30 10:12:03;;;;;;;2.95;1.17;;;20.50;50.40;;;;;;5061121;28;20052;-31
2023/12/30 10:14:30;;;;;;;2.20;1.10;;;20.70;72.80;;;;;;5060782;28;20090;-30
2023/12/30 10:16:57;;;;;;;2.97;1.08;;;;;;;;;;5061762;28;20117;-31
2023/12/30 10:19:24;;;;;;;1.50;0.90;;;;;;;;;;5060223;28;20052;-31
2023/12/30 10:21:51;;;;;;;3.17;1.08;;;;;;;;;;5063590;28;20102;-28
2023/12/30 10:24:18;;;;;;;1.90;0.93;;;;;;;;;;5070853;28;20501;-29
2023/12/30 10:26:47;;;;;;;3.28;1.13;;;20.90;49.00;;;;;;5066833;28;20549;-26
2023/12/30 10:29:14;;;;;;;1.58;0.93;;;;;;;;;;5061172;28;20053;-29
2023/12/30 10:31:42;;;;;;;1.88;1.00;;;;;;;;;;5058780;28;20049;-27
2023/12/30 10:34:09;;;;;;;2.45;1.00;;;;;;;;;;5048789;28;20099;-30
2023/12/30 10:36:36;;;;;;;3.50;1.23;;;20.80;62.60;;;;;;5056099;28;20048;-28
2023/12/30 10:39:04;;;;;;;2.25;1.02;;;;;;;;;;5070818;28;20049;-32
2023/12/30 10:41:31;;;;;;;1.88;1.08;;;;;;;;;;5069764;28;20521;-26
2023/12/30 10:43:59;;;;;;;2.45;1.00;;;21.00;49.00;;;;;;5070057;28;20601;-26
2023/12/30 10:46:26;;;;;;;2.00;0.95;;;21.00;72.00;;;;;;5070694;28;20126;-26
2023/12/30 10:48:55;;;;;;;2.42;1.17;;;21.00;49.00;;;;;;5070763;28;20447;-30
2023/12/30 10:51:24;;;;;;;3.50;1.20;;;;;;;;;;5070737;28;20053;-29
2023/12/30 10:53:55;;;;;;;4.25;1.20;;;21.00;49.00;;;;;;5060215;28;20048;-27
2023/12/30 10:56:23;;;;;;;5.18;1.40;;;21.10;53.30;;;;;;5062049;28;20118;-29
2023/12/30 10:58:50;;;;;;;4.90;1.30;;;21.10;62.90;;;;;;5070017;28;20072;-31
2023/12/30 11:01:19;;;;;;;3.63;1.40;;;21.10;48.70;;;;;;5069208;28;20055;-31
2023/12/30 11:03:45;;;;;;;2.88;1.10;;;20.40;51.40;;;;;;5068811;28;20075;-27
2023/12/30 11:06:14;;;;;;;3.33;1.25;;;;;;;;;;5067236;28;20095;-30
2023/12/30 11:08:43;;;;;;;3.65;1.10;;;;;;;;;;5067247;28;20053;-28
2023/12/30 11:11:11;;;;;;;2.70;1.10;;;;;;;;;;5067405;28;20501;-31
2023/12/30 11:13:38;;;;;;;4.88;1.85;;;;;;;;;;5067789;28;20051;-31
2023/12/30 11:16:12;;;;;;;1.13;0.82;;;;;;;;;;5069079;28;20467;-33
2023/12/30 11:18:51;;;;;;;3.88;1.52;;;21.30;48.70;;;;;;5065887;28;20586;-27
2023/12/30 11:21:33;;;;;;;5.88;1.40;;;;;;;;;;5062560;28;20056;-26
2023/12/30 11:24:01;;;;;;;3.42;1.30;;;21.20;48.80;;;;;;5070610;28;20048;-30
2023/12/30 11:26:28;;;;;;;2.58;1.20;;;;;;;;;;5070293;28;20135;-30
2023/12/30 11:28:56;;;;;;;3.15;1.42;;;;;;;;;;5070488;28;20052;-31
2023/12/30 11:31:31;;;;;;;4.70;1.40;;;;;;;;;;5070605;28;20051;-28
2023/12/30 11:34:00;;;;;;;3.97;1.50;;;21.20;48.90;;;;;;5070451;28;20102;-27
2023/12/30 11:36:27;;;;;;;2.45;1.25;;;;;;;;;;5069712;28;20048;-30
2023/12/30 11:38:54;;;;;;;3.47;1.70;;;21.10;71.90;;;;;;5070535;28;20053;-31
2023/12/30 11:41:22;;;;;;;2.83;1.27;;;21.10;65.20;;;;;;5070256;28;20048;-30
2023/12/30 11:43:49;;;;;;;3.33;1.50;;;;;;;;;;5073924;28;20045;-28
2023/12/30 11:46:16;;;;;;;2.45;1.38;;;21.00;54.30;;;;;;5073743;28;20048;-31
2023/12/30 11:48:43;;;;;;;3.70;1.63;;;;;;;;;;5069869;28;20049;-28
2023/12/30 11:51:19;;;;;;;5.57;1.60;;;21.00;49.00;;;;;;5063274;28;20052;-27
2023/12/30 11:53:46;;;;;;;2.33;1.38;;;21.10;60.80;;;;;;5053147;28;20090;-27
2023/12/30 11:56:13;;;;;;;2.28;1.38;;;;;;;;;;5052992;28;20049;-27
2023/12/30 11:58:40;;;;;;;3.25;1.33;;;21.10;71.60;;;;;;5053375;28;20541;-27
2023/12/30 12:01:07;;;;;;;2.75;1.50;;;;;;;;;;5052895;28;20056;-27
2023/12/30 12:03:34;;;;;;;4.38;1.60;;;21.00;60.80;;;;;;5053028;28;20498;-27
2023/12/30 12:06:01;;;;;;;3.30;1.60;;;;;;;;;;5053028;28;20049;-27
2023/12/30 12:08:29;;;;;;;3.78;1.60;;;;;;;;;;5053584;28;20056;-30
2023/12/30 12:10:57;;;;;;;3.60;1.92;;;;;;;;;;5057165;28;20059;-30
2023/12/30 12:13:24;;;;;;;4.30;1.50;;;;;;;;;;5069662;28;20040;-29
2023/12/30 12:15:51;;;;;;;3.95;1.60;;;20.80;72.00;;;;;;5063585;28;20087;-31
2023/12/30 12:18:18;;;;;;;3.45;1.52;;;;;;;;;;5063890;28;20048;-30
2023/12/30 12:20:45;;;;;;;2.90;1.58;;;;;;;;;;5061854;28;20045;-29
2023/12/30 12:23:13;;;;;;;2.45;1.48;;;;;;;;;;5067671;28;20044;-30
2023/12/30 12:25:42;;;;;;;3.72;1.40;;;20.70;48.80;;;;;;5072774;28;20119;-31
2023/12/30 12:28:10;;;;;;;3.25;1.60;;;20.60;72.30;;;;;;5064375;28;20486;-32
2023/12/30 12:30:37;;;;;;;3.30;1.70;;;;;;;;;;5053609;28;20494;-27
2023/12/30 12:33:04;;;;;;;2.35;1.40;;;;;;;;;;5055574;28;20052;-27
2023/12/30 12:35:31;;;;;;;2.95;1.52;;;21.40;72.70;;;;;;5061801;28;20040;-27
2023/12/30 12:37:59;;;;;;;2.85;1.58;;;;;;;;;;5060678;28;20044;-34
2023/12/30 12:40:26;;;;;;;3.55;1.70;;;;;;;;;;5063792;28;20093;-33
2023/12/30 12:42:54;;;;;;;3.95;1.60;;;;;;;;;;5062250;28;20049;-31
2023/12/30 12:45:21;;;;;;;4.30;1.60;;;20.30;72.00;;;;;;5061746;28;20048;-33
2023/12/30 12:47:48;;;;;;;3.05;1.30;;;;;;;;;;5063620;28;20052;-33
2023/12/30 12:50:15;;;;;;;4.05;1.45;;;20.40;63.20;;;;;;5062358;28;20045;-33
2023/12/30 12:52:43;;;;;;;4.00;1.90;;;;;;;;;;5061404;28;20098;-31
2023/12/30 12:55:12;;;;;;;2.67;1.38;;;;;;;;;;5051918;28;20048;-30
2023/12/30 12:57:39;;;;;;;2.83;1.40;;;;;;;;;;5052292;28;20057;-34
2023/12/30 13:00:09;;;;;;;2.63;1.40;;;20.20;49.00;;;;;;5052257;28;20490;-31
2023/12/30 13:02:37;;;;;;;4.93;1.80;;;;;;;;;;5052012;28;20041;-32
2023/12/30 13:05:05;;;;;;;2.28;1.30;;;20.10;54.90;;;;;;5052090;28;20045;-30
2023/12/30 13:07:34;;;;;;;2.90;1.50;;;20.10;72.60;;;;;;5061298;28;20055;-27
2023/12/30 13:10:16;;;;;;;3.33;1.80;;;;;;;;;;5062241;28;20044;-29
2023/12/30 13:12:44;;;;;;;4.28;1.80;;;;;;;;;;5063054;28;20455;-30
2023/12/30 13:15:15;;;;;;;3.72;1.65;;;20.00;49.20;;;;;;5062522;28;20048;-32
2023/12/30 13:17:45;;;;;;;4.30;1.70;;;19.90;72.50;;;;;;5063034;28;20118;-34
2023/12/30 13:20:16;;;;;;;2.97;1.45;;;;;;;;;;5059665;28;20076;-29
2023/12/30 13:22:43;;;;;;;3.40;1.60;;;19.60;72.90;;;;;;5060017;28;20044;-32
2023/12/30 13:25:10;;;;;;;3.75;1.52;;;;;;;;;;5062285;28;20090;-30
2023/12/30 13:27:37;;;;;;;3.35;1.60;;;20.00;67.60;;;;;;5062089;28;20455;-33
2023/12/30 13:30:05;;;;;;;3.83;1.65;;;;;;;;;;5060478;28;20395;-29
2023/12/30 13:32:35;;;;;;;3.47;1.40;;;19.80;49.30;;;;;;5065388;28;20048;-28
2023/12/30 13:35:02;;;;;;;2.70;1.30;;;;;;;;;;5051713;28;20057;-27
2023/12/30 13:37:30;;;;;;;5.28;1.75;;;;;;;;;;5065008;28;20049;-31
2023/12/30 13:40:01;;;;;;;4.95;1.80;;;;;;;;;;5071997;28;20058;-32
2023/12/30 13:42:28;;;;;;;4.43;1.45;;;;;;;;;;5071740;28;20052;-33
2023/12/30 13:44:57;;;;;;;3.35;1.40;;;20.30;60.70;;;;;;5071538;28;20094;-30
2023/12/30 13:47:46;;;;;;;8.20;1.55;;;;;;;;;;5066077;28;20135;-35
2023/12/30 13:50:19;;;;;;;3.50;1.50;;;;;;;;;;5071684;28;20090;-27
2023/12/30 13:52:46;;;;;;;5.63;1.73;;;19.60;73.40;;;;;;5071000;28;20083;-27
2023/12/30 13:55:14;;;;;;;3.58;1.70;;;;;;;;;;5071186;28;20048;-28
2023/12/30 13:57:42;;;;;;;4.10;1.80;;;;;;;;;;5049978;28;20055;-27
2023/12/30 14:00:12;;;;;;;3.88;1.48;;;;;;;;;;5049764;28;20057;-27